This is the latest recevied weather packets stored in our database for station/object HB9TJM-8. If no packets are shown the sender has not sent any weather packets the latest 10 day(s).
| Time | Temp. | Humidity | Pressure | Rain* | Wind** | Luminosity | Snow |
|---|---|---|---|---|---|---|---|
| 1777128338 | 19.44° C | 36% | 1017.6 hPa | 0 mm | - | 525 W/m² | - |
| 1777128031 | 18.89° C | 34% | 1017.9 hPa | 0 mm | - | 533 W/m² | - |
| 1777128031 | 18.89° C | 34% | 1017.9 hPa | 0 mm | - | 533 W/m² | - |
| 1777127723 | 18.89° C | 34% | 1017.9 hPa | 0 mm | - | 545 W/m² | - |
| 1777127416 | 20° C | 33% | 1018 hPa | 0 mm | - | 576 W/m² | - |
| 1777127108 | 20° C | 35% | 1018 hPa | 0 mm | - | 594 W/m² | - |
| 1777126801 | 19.44° C | 37% | 1018.1 hPa | 0 mm | - | 591 W/m² | - |
| 1777126494 | 20° C | 36% | 1018 hPa | 0 mm | - | 609 W/m² | - |
| 1777126187 | 19.44° C | 35% | 1018.1 hPa | 0 mm | - | 619 W/m² | - |
| 1777125879 | 18.89° C | 35% | 1018.1 hPa | 0 mm | - | 628 W/m² | - |
| 1777125879 | 18.89° C | 35% | 1018.1 hPa | 0 mm | - | 628 W/m² | - |
| 1777125572 | 20° C | 33% | 1018 hPa | 0 mm | - | 643 W/m² | - |
| 1777125265 | 20° C | 37% | 1018.1 hPa | 0 mm | - | 651 W/m² | - |
| 1777124957 | 20° C | 34% | 1018.2 hPa | 0 mm | - | 667 W/m² | - |
| 1777124649 | 19.44° C | 35% | 1017.8 hPa | 0 mm | - | 680 W/m² | - |
| 1777124342 | 19.44° C | 39% | 1018.3 hPa | 0 mm | - | 691 W/m² | - |
| 1777124034 | 18.89° C | 35% | 1018.2 hPa | 0 mm | - | 703 W/m² | - |
| 1777123727 | 18.89° C | 35% | 1018.1 hPa | 0 mm | - | 711 W/m² | - |
| 1777123421 | 19.44° C | 35% | 1018.1 hPa | 0 mm | - | 721 W/m² | - |
| 1777123112 | 19.44° C | 35% | 1018.7 hPa | 0 mm | - | 732 W/m² | - |
| 1777122805 | 18.89° C | 36% | 1018.2 hPa | 0 mm | - | 741 W/m² | - |
| 1777122497 | 18.89° C | 36% | 1018.5 hPa | 0 mm | - | 750 W/m² | - |
| 1777122190 | 18.89° C | 37% | 1018.2 hPa | 0 mm | - | 755 W/m² | - |
| 1777121882 | 18.89° C | 35% | 1019.1 hPa | 0 mm | - | 763 W/m² | - |
| 1777121574 | 19.44° C | 34% | 1018.5 hPa | 0 mm | - | 771 W/m² | - |
* Rain latest hour (hover to see other rain measurements)
** Current wind speed in m/s (hover to see current wind gust speed)